Air Resources Laboratory banner image
Air Resources Laboratory web site National Oceanic and Atmospheric Administration (NOAA)

wy metar


KBPI 102353Z AUTO 29013KT 10SM CLR 29/07 A3034 RMK AO2 SLP174 T02890067 10322
 20250 57007=
KBYG 102353Z AUTO 16010KT 10SM CLR 37/05 A3014 RMK AO2 SLP128 T03670050 10378
 20344 56012=
KCOD 102356Z AUTO 02006KT 10SM CLR 33/10 A3014 RMK AO2 SLP148 T03280100 10361
 20311 56008=
KCPR 102353Z 08009KT 10SM CLR 36/01 A3016 RMK AO2 SLP136 T03610006 10383 20333
 56013=
KCYS 102353Z 13013G21KT 10SM CLR 31/06 A3031 RMK AO2 SLP169 T03110061 10322
 20294 56013=
KDGW 102353Z AUTO 14016G26KT 10SM CLR 36/03 A3018 RMK AO2 PK WND 12028/2337
 SLP146 T03610033 10378 20350 56009=
KEVW 102353Z AUTO 10014G25KT 10SM BKN100 27/09 A3036 RMK AO2 WSHFT 2335 LTG
 DSNT NE SLP174 T02720094 10311 20244 55012=
KGCC 102353Z AUTO 13008KT 10SM CLR 37/04 A3011 RMK AO2 SLP135 T03670044 10378
 20356 56013=
KGEY 102353Z AUTO 16004KT 10SM CLR 39/02 A3001 RMK AO2 SLP115 T03890017 10394
 20300 56014=
KJAC 102356Z 19007KT 10SM FEW100 27/10 A3032 RMK AO2 SLP209 T02670100 10306
 20244 56003=
KLAR 102353Z AUTO 14016G24KT 10SM CLR 29/03 A3038 RMK AO2 PK WND 13027/2320
 SLP163 T02890028 10311 20283 58008=
KLND 102353Z AUTO 11010KT 10SM CLR 35/03 A3016 RMK AO2 SLP129 T03500033 10372
 20311 58008=
KP60 102356Z AUTO 27005KT 25/06 A3045 RMK AO1 SLP229 T02500056 10278 20228
 55003=
KRIW 102353Z AUTO 07008G15KT 10SM CLR 36/01 A3015 RMK AO2 SLP129 T03610006
 10372 20294 56016=
KRKS 102354Z AUTO VRB03KT 10SM CLR 33/00 A3027 RMK AO2 SLP149 T03330000 10339
 20289 58015=
KRWL 102353Z AUTO 05006KT 10SM CLR 35/00 A3029 RMK AO2 SLP140 T03500000 10356
 20300 56014 TSNO=
KSHR 102353Z AUTO 09004KT 10SM CLR 39/07 A3004 RMK AO2 SLP125 T03890072 10400
 20333 56013=
KTOR 102353Z AUTO 13012G19KT 10SM CLR 36/08 A3015 RMK AO2 SLP152 T03560078
 10372 20350 57012=
KWRL 102353Z AUTO 34007KT 10SM CLR 38/02 A3003 RMK AO2 SLP117 T03830022 10394
 20311 56016=